sensor_id;sensor_type;location;lat;lon;timestamp;pressure;altitude;pressure_sealevel;temperature;humidity
66857;BME280;53766;50.280;19.160;2023-09-07T00:02:10;99350.94;;;20.20;52.91
66857;BME280;53766;50.280;19.160;2023-09-07T00:04:37;99355.47;;;20.19;52.94
66857;BME280;53766;50.280;19.160;2023-09-07T00:07:05;99352.97;;;20.18;53.04
66857;BME280;53766;50.280;19.160;2023-09-07T00:09:32;99360.00;;;20.19;52.70
66857;BME280;53766;50.280;19.160;2023-09-07T00:12:00;99353.78;;;20.18;52.78
66857;BME280;53766;50.280;19.160;2023-09-07T00:14:27;99352.97;;;20.18;52.81
66857;BME280;53766;50.280;19.160;2023-09-07T00:16:54;99355.66;;;20.18;52.92
66857;BME280;53766;50.280;19.160;2023-09-07T00:19:21;99352.97;;;20.18;52.86
66857;BME280;53766;50.280;19.160;2023-09-07T00:21:49;99352.97;;;20.18;52.69
66857;BME280;53766;50.280;19.160;2023-09-07T00:24:19;99351.31;;;20.17;52.93
66857;BME280;53766;50.280;19.160;2023-09-07T00:26:46;99352.34;;;20.16;52.87
66857;BME280;53766;50.280;19.160;2023-09-07T00:29:13;99357.69;;;20.16;52.58
66857;BME280;53766;50.280;19.160;2023-09-07T00:31:41;99349.66;;;20.16;52.78
66857;BME280;53766;50.280;19.160;2023-09-07T00:34:08;99347.16;;;20.14;52.82
66857;BME280;53766;50.280;19.160;2023-09-07T00:36:36;99353.38;;;20.14;52.87
66857;BME280;53766;50.280;19.160;2023-09-07T00:39:04;99346.34;;;20.13;52.61
66857;BME280;53766;50.280;19.160;2023-09-07T00:41:32;99348.84;;;20.15;52.73
66857;BME280;53766;50.280;19.160;2023-09-07T00:43:59;99348.03;;;20.14;52.75
66857;BME280;53766;50.280;19.160;2023-09-07T00:46:26;99351.69;;;20.13;52.72
66857;BME280;53766;50.280;19.160;2023-09-07T00:48:54;99355.41;;;20.12;52.67
66857;BME280;53766;50.280;19.160;2023-09-07T00:51:21;99351.06;;;20.11;52.79
66857;BME280;53766;50.280;19.160;2023-09-07T00:53:48;99355.41;;;20.12;52.76
66857;BME280;53766;50.280;19.160;2023-09-07T00:56:16;99355.41;;;20.12;52.67
66857;BME280;53766;50.280;19.160;2023-09-07T00:58:43;99355.41;;;20.12;52.67
66857;BME280;53766;50.280;19.160;2023-09-07T01:01:11;99351.06;;;20.11;52.78
66857;BME280;53766;50.280;19.160;2023-09-07T01:03:38;99349.22;;;20.12;52.61
66857;BME280;53766;50.280;19.160;2023-09-07T01:08:35;99357.44;;;20.10;52.58
66857;BME280;53766;50.280;19.160;2023-09-07T01:11:14;99346.75;;;20.10;52.68
66857;BME280;53766;50.280;19.160;2023-09-07T01:13:42;99339.72;;;20.09;52.68
66857;BME280;53766;50.280;19.160;2023-09-07T01:16:10;99353.94;;;20.10;52.73
66857;BME280;53766;50.280;19.160;2023-09-07T01:18:38;99352.28;;;20.09;52.69
66857;BME280;53766;50.280;19.160;2023-09-07T01:21:06;99354.94;;;20.09;52.73
66857;BME280;53766;50.280;19.160;2023-09-07T01:23:38;99351.47;;;20.08;52.67
66857;BME280;53766;50.280;19.160;2023-09-07T01:26:07;99347.13;;;20.07;52.55
66857;BME280;53766;50.280;19.160;2023-09-07T01:28:35;99348.78;;;20.08;52.59
66857;BME280;53766;50.280;19.160;2023-09-07T01:31:04;99355.13;;;20.07;52.56
66857;BME280;53766;50.280;19.160;2023-09-07T01:33:33;99352.47;;;20.07;52.71
66857;BME280;53766;50.280;19.160;2023-09-07T01:36:00;99355.13;;;20.07;52.61
66857;BME280;53766;50.280;19.160;2023-09-07T01:38:27;99351.66;;;20.07;52.53
66857;BME280;53766;50.280;19.160;2023-09-07T01:40:55;99357.00;;;20.07;52.58
66857;BME280;53766;50.280;19.160;2023-09-07T01:43:22;99346.28;;;20.07;52.71
66857;BME280;53766;50.280;19.160;2023-09-07T01:45:50;99343.81;;;20.05;52.71
66857;BME280;53766;50.280;19.160;2023-09-07T01:48:17;99333.09;;;20.05;52.68
66857;BME280;53766;50.280;19.160;2023-09-07T01:50:44;99344.84;;;20.04;52.55
66857;BME280;53766;50.280;19.160;2023-09-07T01:53:11;99338.47;;;20.05;52.67
66857;BME280;53766;50.280;19.160;2023-09-07T01:55:39;99346.69;;;20.04;52.54
66857;BME280;53766;50.280;19.160;2023-09-07T01:58:06;99343.81;;;20.05;52.56
66857;BME280;53766;50.280;19.160;2023-09-07T02:00:36;99345.84;;;20.03;52.47
66857;BME280;53766;50.280;19.160;2023-09-07T02:03:05;99338.84;;;20.02;52.50
66857;BME280;53766;50.280;19.160;2023-09-07T02:05:34;99348.50;;;20.03;52.46
66857;BME280;53766;50.280;19.160;2023-09-07T02:08:01;99344.19;;;20.02;52.64
66857;BME280;53766;50.280;19.160;2023-09-07T02:10:29;99347.69;;;20.03;52.63
66857;BME280;53766;50.280;19.160;2023-09-07T02:12:56;99344.19;;;20.02;52.65
66857;BME280;53766;50.280;19.160;2023-09-07T02:15:25;99343.38;;;20.02;52.52
66857;BME280;53766;50.280;19.160;2023-09-07T02:17:52;99348.72;;;20.02;52.55
66857;BME280;53766;50.280;19.160;2023-09-07T02:20:20;99346.25;;;20.00;52.47
66857;BME280;53766;50.280;19.160;2023-09-07T02:22:48;99335.53;;;20.00;52.46
66857;BME280;53766;50.280;19.160;2023-09-07T02:25:15;99340.88;;;20.00;52.51
66857;BME280;53766;50.280;19.160;2023-09-07T02:27:42;99330.19;;;20.00;52.49
66857;BME280;53766;50.280;19.160;2023-09-07T02:30:09;99328.56;;;19.99;52.56
66857;BME280;53766;50.280;19.160;2023-09-07T02:32:37;99332.22;;;19.98;52.47
66857;BME280;53766;50.280;19.160;2023-09-07T02:35:04;99334.91;;;19.98;52.49
66857;BME280;53766;50.280;19.160;2023-09-07T02:37:32;99336.75;;;19.98;52.44
66857;BME280;53766;50.280;19.160;2023-09-07T02:39:59;99335.94;;;19.97;52.30
66857;BME280;53766;50.280;19.160;2023-09-07T02:42:26;99325.25;;;19.97;52.48
66857;BME280;53766;50.280;19.160;2023-09-07T02:44:53;99328.09;;;19.96;52.45
66857;BME280;53766;50.280;19.160;2023-09-07T02:47:21;99330.59;;;19.97;52.24
66857;BME280;53766;50.280;19.160;2023-09-07T02:49:48;99328.91;;;19.96;52.29
66857;BME280;53766;50.280;19.160;2023-09-07T02:52:15;99331.59;;;19.96;52.49
66857;BME280;53766;50.280;19.160;2023-09-07T02:54:43;99332.63;;;19.95;52.33
66857;BME280;53766;50.280;19.160;2023-09-07T02:57:10;99337.97;;;19.95;52.43
66857;BME280;53766;50.280;19.160;2023-09-07T02:59:38;99336.31;;;19.94;52.26
66857;BME280;53766;50.280;19.160;2023-09-07T03:02:05;99340.00;;;19.93;52.33
66857;BME280;53766;50.280;19.160;2023-09-07T03:04:33;99340.00;;;19.93;52.52
66857;BME280;53766;50.280;19.160;2023-09-07T03:07:00;99340.00;;;19.93;52.47
66857;BME280;53766;50.280;19.160;2023-09-07T03:09:29;99335.66;;;19.92;52.26
66857;BME280;53766;50.280;19.160;2023-09-07T03:11:56;99336.69;;;19.91;52.26
66857;BME280;53766;50.280;19.160;2023-09-07T03:14:23;99330.31;;;19.92;52.38
66857;BME280;53766;50.280;19.160;2023-09-07T03:16:51;99330.53;;;19.90;52.30
66857;BME280;53766;50.280;19.160;2023-09-07T03:19:19;99336.69;;;19.91;52.41
66857;BME280;53766;50.280;19.160;2023-09-07T03:21:46;99335.03;;;19.90;52.44
66857;BME280;53766;50.280;19.160;2023-09-07T03:24:13;99328.03;;;19.89;52.25
66857;BME280;53766;50.280;19.160;2023-09-07T03:26:42;99330.72;;;19.89;52.30
66857;BME280;53766;50.280;19.160;2023-09-07T03:29:11;99331.72;;;19.88;52.42
66857;BME280;53766;50.280;19.160;2023-09-07T03:31:38;99335.25;;;19.88;52.37
66857;BME280;53766;50.280;19.160;2023-09-07T03:34:05;99331.09;;;19.86;52.28
66857;BME280;53766;50.280;19.160;2023-09-07T03:36:33;99333.75;;;19.86;52.34
66857;BME280;53766;50.280;19.160;2023-09-07T03:39:00;99333.75;;;19.86;52.12
66857;BME280;53766;50.280;19.160;2023-09-07T03:41:27;99332.94;;;19.85;52.25
66857;BME280;53766;50.280;19.160;2023-09-07T03:43:57;99343.63;;;19.85;52.33
66857;BME280;53766;50.280;19.160;2023-09-07T03:46:26;99340.13;;;19.85;52.22
66857;BME280;53766;50.280;19.160;2023-09-07T03:48:53;99345.47;;;19.85;52.23
66857;BME280;53766;50.280;19.160;2023-09-07T03:51:20;99346.53;;;19.84;52.13
66857;BME280;53766;50.280;19.160;2023-09-07T03:53:48;99339.50;;;19.83;52.17
66857;BME280;53766;50.280;19.160;2023-09-07T03:56:15;99340.31;;;19.83;52.31
66857;BME280;53766;50.280;19.160;2023-09-07T03:58:42;99350.19;;;19.83;52.05
66857;BME280;53766;50.280;19.160;2023-09-07T04:01:09;99348.56;;;19.82;52.15
66857;BME280;53766;50.280;19.160;2023-09-07T04:03:37;99346.69;;;19.82;52.25
66857;BME280;53766;50.280;19.160;2023-09-07T04:06:05;99346.88;;;19.81;52.16
66857;BME280;53766;50.280;19.160;2023-09-07T04:08:32;99349.56;;;19.81;52.15
66857;BME280;53766;50.280;19.160;2023-09-07T04:11:03;99346.06;;;19.80;52.27
66857;BME280;53766;50.280;19.160;2023-09-07T04:13:31;99355.09;;;19.79;52.05
66857;BME280;53766;50.280;19.160;2023-09-07T04:15:58;99355.09;;;19.79;52.09
66857;BME280;53766;50.280;19.160;2023-09-07T04:18:25;99360.44;;;19.79;52.15
66857;BME280;53766;50.280;19.160;2023-09-07T04:20:53;99370.28;;;19.79;52.11
66857;BME280;53766;50.280;19.160;2023-09-07T04:23:20;99364.94;;;19.79;51.94
66857;BME280;53766;50.280;19.160;2023-09-07T04:25:47;99363.31;;;19.78;51.89
66857;BME280;53766;50.280;19.160;2023-09-07T04:28:15;99368.66;;;19.78;51.95
66857;BME280;53766;50.280;19.160;2023-09-07T04:30:42;99374.00;;;19.78;52.04
66857;BME280;53766;50.280;19.160;2023-09-07T04:33:09;99367.81;;;19.77;51.94
66857;BME280;53766;50.280;19.160;2023-09-07T04:35:37;99377.69;;;19.77;52.04
66857;BME280;53766;50.280;19.160;2023-09-07T04:38:05;99368.66;;;19.78;52.06
66857;BME280;53766;50.280;19.160;2023-09-07T04:40:32;99368.03;;;19.76;51.87
66857;BME280;53766;50.280;19.160;2023-09-07T04:43:00;99374.38;;;19.75;52.05
66857;BME280;53766;50.280;19.160;2023-09-07T04:45:27;99373.53;;;19.74;51.66
66857;BME280;53766;50.280;19.160;2023-09-07T04:47:54;99375.56;;;19.72;51.78
66857;BME280;53766;50.280;19.160;2023-09-07T04:50:21;99375.56;;;19.72;51.77
66857;BME280;53766;50.280;19.160;2023-09-07T04:52:49;99368.59;;;19.71;51.71
66857;BME280;53766;50.280;19.160;2023-09-07T04:55:16;99373.09;;;19.70;51.74
66857;BME280;53766;50.280;19.160;2023-09-07T04:57:43;99363.25;;;19.71;51.80
66857;BME280;53766;50.280;19.160;2023-09-07T05:00:10;99371.44;;;19.69;51.69
66857;BME280;53766;50.280;19.160;2023-09-07T05:02:38;99372.25;;;19.70;51.75
66857;BME280;53766;50.280;19.160;2023-09-07T05:05:07;99372.25;;;19.70;51.84
66857;BME280;53766;50.280;19.160;2023-09-07T05:07:35;99371.44;;;19.69;51.72
66857;BME280;53766;50.280;19.160;2023-09-07T05:10:02;99366.91;;;19.70;51.93
66857;BME280;53766;50.280;19.160;2023-09-07T05:12:30;99371.06;;;19.72;51.87
66857;BME280;53766;50.280;19.160;2023-09-07T05:14:57;99369.66;;;19.77;51.65
66857;BME280;53766;50.280;19.160;2023-09-07T05:17:24;99370.28;;;19.79;51.84
66857;BME280;53766;50.280;19.160;2023-09-07T05:19:52;99370.94;;;19.81;51.96
66857;BME280;53766;50.280;19.160;2023-09-07T05:22:19;99369.94;;;19.82;51.88
66857;BME280;53766;50.280;19.160;2023-09-07T05:24:49;99376.94;;;19.83;51.94
66857;BME280;53766;50.280;19.160;2023-09-07T05:27:16;99378.59;;;19.84;51.93
66857;BME280;53766;50.280;19.160;2023-09-07T05:29:43;99375.91;;;19.84;51.88
66857;BME280;53766;50.280;19.160;2023-09-07T05:32:12;99369.53;;;19.85;51.80
66857;BME280;53766;50.280;19.160;2023-09-07T05:34:40;99374.88;;;19.85;52.00
66857;BME280;53766;50.280;19.160;2023-09-07T05:37:07;99381.88;;;19.86;52.02
66857;BME280;53766;50.280;19.160;2023-09-07T05:39:35;99387.22;;;19.86;51.97
66857;BME280;53766;50.280;19.160;2023-09-07T05:42:02;99380.06;;;19.86;52.01
66857;BME280;53766;50.280;19.160;2023-09-07T05:44:29;99380.06;;;19.86;52.08
66857;BME280;53766;50.280;19.160;2023-09-07T05:46:56;99382.72;;;19.86;51.82
66857;BME280;53766;50.280;19.160;2023-09-07T05:49:26;99389.72;;;19.87;52.00
66857;BME280;53766;50.280;19.160;2023-09-07T05:51:53;99390.53;;;19.88;51.91
66857;BME280;53766;50.280;19.160;2023-09-07T05:54:20;99394.06;;;19.88;51.93
66857;BME280;53766;50.280;19.160;2023-09-07T05:56:48;99391.38;;;19.88;51.87
66857;BME280;53766;50.280;19.160;2023-09-07T05:59:15;99386.84;;;19.89;51.94
66857;BME280;53766;50.280;19.160;2023-09-07T06:01:42;99394.06;;;19.88;51.96
66857;BME280;53766;50.280;19.160;2023-09-07T06:04:10;99392.03;;;19.90;51.88
66857;BME280;53766;50.280;19.160;2023-09-07T06:06:37;99392.84;;;19.91;52.07
66857;BME280;53766;50.280;19.160;2023-09-07T06:09:05;99396.34;;;19.91;51.86
66857;BME280;53766;50.280;19.160;2023-09-07T06:11:32;99402.50;;;19.92;51.87
66857;BME280;53766;50.280;19.160;2023-09-07T06:14:01;99409.53;;;19.93;51.97
66857;BME280;53766;50.280;19.160;2023-09-07T06:16:29;99405.00;;;19.93;52.09
66857;BME280;53766;50.280;19.160;2023-09-07T06:18:57;99407.50;;;19.95;51.89
66857;BME280;53766;50.280;19.160;2023-09-07T06:21:24;99409.13;;;19.96;51.90
66857;BME280;53766;50.280;19.160;2023-09-07T06:23:51;99405.47;;;19.97;51.94
66857;BME280;53766;50.280;19.160;2023-09-07T06:26:18;99409.78;;;19.98;51.82
66857;BME280;53766;50.280;19.160;2023-09-07T06:28:46;99418.63;;;19.99;51.96
66857;BME280;53766;50.280;19.160;2023-09-07T06:31:14;99412.25;;;20.00;51.94
66857;BME280;53766;50.280;19.160;2023-09-07T06:33:45;99422.78;;;20.01;51.92
66857;BME280;53766;50.280;19.160;2023-09-07T06:36:13;99424.41;;;20.02;52.03
66857;BME280;53766;50.280;19.160;2023-09-07T06:38:40;99419.06;;;20.02;51.86
66857;BME280;53766;50.280;19.160;2023-09-07T06:41:07;99429.38;;;20.05;52.01
66857;BME280;53766;50.280;19.160;2023-09-07T06:43:36;99421.34;;;20.05;51.95
66857;BME280;53766;50.280;19.160;2023-09-07T06:46:05;99420.34;;;20.06;52.04
66857;BME280;53766;50.280;19.160;2023-09-07T06:48:34;99431.03;;;20.06;52.07
66857;BME280;53766;50.280;19.160;2023-09-07T06:51:05;99438.03;;;20.07;51.91
66857;BME280;53766;50.280;19.160;2023-09-07T06:53:33;99429.00;;;20.08;52.12
66857;BME280;53766;50.280;19.160;2023-09-07T06:56:20;99436.00;;;20.09;51.97
66857;BME280;53766;50.280;19.160;2023-09-07T06:58:48;99439.31;;;20.11;52.04
66857;BME280;53766;50.280;19.160;2023-09-07T07:01:15;99435.63;;;20.12;52.04
66857;BME280;53766;50.280;19.160;2023-09-07T07:03:42;99435.63;;;20.12;52.09
66857;BME280;53766;50.280;19.160;2023-09-07T07:06:10;99432.75;;;20.14;51.99
66857;BME280;53766;50.280;19.160;2023-09-07T07:08:37;99433.59;;;20.14;52.01
66857;BME280;53766;50.280;19.160;2023-09-07T07:11:04;99432.56;;;20.16;52.04
66857;BME280;53766;50.280;19.160;2023-09-07T07:13:32;99432.56;;;20.16;52.11
66857;BME280;53766;50.280;19.160;2023-09-07T07:15:59;99436.91;;;20.17;52.25
66857;BME280;53766;50.280;19.160;2023-09-07T07:18:26;99433.22;;;20.18;52.09
66857;BME280;53766;50.280;19.160;2023-09-07T07:20:53;99434.88;;;20.19;52.15
66857;BME280;53766;50.280;19.160;2023-09-07T07:23:21;99434.88;;;20.19;52.21
66857;BME280;53766;50.280;19.160;2023-09-07T07:25:48;99435.50;;;20.21;52.15
66857;BME280;53766;50.280;19.160;2023-09-07T07:28:16;99443.50;;;20.21;52.25
66857;BME280;53766;50.280;19.160;2023-09-07T07:30:44;99440.66;;;20.22;52.14
66857;BME280;53766;50.280;19.160;2023-09-07T07:33:11;99436.13;;;20.23;52.25
66857;BME280;53766;50.280;19.160;2023-09-07T07:35:38;99436.75;;;20.25;52.16
66857;BME280;53766;50.280;19.160;2023-09-07T07:38:06;99440.28;;;20.25;52.21
66857;BME280;53766;50.280;19.160;2023-09-07T07:40:34;99435.75;;;20.26;52.23
66857;BME280;53766;50.280;19.160;2023-09-07T07:43:02;99434.72;;;20.27;52.37
66857;BME280;53766;50.280;19.160;2023-09-07T07:45:30;99423.03;;;20.28;52.33
66857;BME280;53766;50.280;19.160;2023-09-07T07:47:57;99431.69;;;20.30;52.27
66857;BME280;53766;50.280;19.160;2023-09-07T07:50:24;99427.97;;;20.31;52.40
66857;BME280;53766;50.280;19.160;2023-09-07T07:52:52;99427.97;;;20.31;52.36
66857;BME280;53766;50.280;19.160;2023-09-07T07:55:19;99428.78;;;20.31;52.27
66857;BME280;53766;50.280;19.160;2023-09-07T07:57:46;99428.63;;;20.33;52.35
66857;BME280;53766;50.280;19.160;2023-09-07T08:00:14;99439.13;;;20.34;52.54
66857;BME280;53766;50.280;19.160;2023-09-07T08:02:42;99438.31;;;20.34;52.42
66857;BME280;53766;50.280;19.160;2023-09-07T08:05:11;99441.63;;;20.36;52.52
66857;BME280;53766;50.280;19.160;2023-09-07T08:07:38;99437.91;;;20.37;52.86
66857;BME280;53766;50.280;19.160;2023-09-07T08:10:05;99444.09;;;20.38;52.65
66857;BME280;53766;50.280;19.160;2023-09-07T08:12:33;99440.19;;;20.40;52.67
66857;BME280;53766;50.280;19.160;2023-09-07T08:15:00;99447.22;;;20.41;52.72
66857;BME280;53766;50.280;19.160;2023-09-07T08:17:27;99440.00;;;20.42;52.63
66857;BME280;53766;50.280;19.160;2023-09-07T08:19:55;99446.19;;;20.42;52.68
66857;BME280;53766;50.280;19.160;2023-09-07T08:22:24;99447.84;;;20.43;52.72
66857;BME280;53766;50.280;19.160;2023-09-07T08:24:51;99454.03;;;20.44;52.78
66857;BME280;53766;50.280;19.160;2023-09-07T08:27:19;99445.81;;;20.45;52.72
66857;BME280;53766;50.280;19.160;2023-09-07T08:29:47;99442.09;;;20.46;52.74
66857;BME280;53766;50.280;19.160;2023-09-07T08:32:18;99449.13;;;20.47;52.74
66857;BME280;53766;50.280;19.160;2023-09-07T08:34:46;99447.09;;;20.49;52.64
66857;BME280;53766;50.280;19.160;2023-09-07T08:37:13;99447.09;;;20.49;52.74
66857;BME280;53766;50.280;19.160;2023-09-07T08:39:40;99447.09;;;20.49;52.75
66857;BME280;53766;50.280;19.160;2023-09-07T08:42:08;99443.38;;;20.50;52.88
66857;BME280;53766;50.280;19.160;2023-09-07T08:44:36;99445.88;;;20.52;52.81
66857;BME280;53766;50.280;19.160;2023-09-07T08:47:05;99445.69;;;20.53;52.73
66857;BME280;53766;50.280;19.160;2023-09-07T08:49:33;99443.00;;;20.53;52.79
66857;BME280;53766;50.280;19.160;2023-09-07T08:52:02;99441.97;;;20.54;52.84
66857;BME280;53766;50.280;19.160;2023-09-07T08:54:31;99440.94;;;20.55;52.94
66857;BME280;53766;50.280;19.160;2023-09-07T08:57:02;99443.47;;;20.57;52.88
66857;BME280;53766;50.280;19.160;2023-09-07T08:59:30;99438.91;;;20.58;52.80
66857;BME280;53766;50.280;19.160;2023-09-07T09:01:58;99429.88;;;20.59;52.85
66857;BME280;53766;50.280;19.160;2023-09-07T09:04:26;99437.72;;;20.60;52.91
66857;BME280;53766;50.280;19.160;2023-09-07T09:06:55;99434.03;;;20.61;52.95
66857;BME280;53766;50.280;19.160;2023-09-07T09:09:23;99434.84;;;20.62;52.83
66857;BME280;53766;50.280;19.160;2023-09-07T09:11:54;99442.69;;;20.63;53.02
66857;BME280;53766;50.280;19.160;2023-09-07T09:14:21;99439.81;;;20.65;52.88
66857;BME280;53766;50.280;19.160;2023-09-07T09:16:50;99441.47;;;20.66;52.94
66857;BME280;53766;50.280;19.160;2023-09-07T09:19:17;99435.09;;;20.67;52.92
66857;BME280;53766;50.280;19.160;2023-09-07T09:21:48;99439.41;;;20.68;52.82
66857;BME280;53766;50.280;19.160;2023-09-07T09:24:16;99426.69;;;20.70;52.82
66857;BME280;53766;50.280;19.160;2023-09-07T09:26:45;99428.34;;;20.71;52.94
66857;BME280;53766;50.280;19.160;2023-09-07T09:29:12;99432.66;;;20.72;52.84
66857;BME280;53766;50.280;19.160;2023-09-07T09:31:43;99431.63;;;20.73;52.99
66857;BME280;53766;50.280;19.160;2023-09-07T09:34:10;99433.28;;;20.74;52.79
66857;BME280;53766;50.280;19.160;2023-09-07T09:36:37;99432.25;;;20.75;52.90
66857;BME280;53766;50.280;19.160;2023-09-07T09:39:08;99431.25;;;20.76;52.97
66857;BME280;53766;50.280;19.160;2023-09-07T09:41:36;99439.91;;;20.78;52.91
66857;BME280;53766;50.280;19.160;2023-09-07T09:44:05;99434.56;;;20.78;52.87
66857;BME280;53766;50.280;19.160;2023-09-07T09:46:33;99437.06;;;20.80;52.96
66857;BME280;53766;50.280;19.160;2023-09-07T09:49:01;99437.06;;;20.80;52.91
66857;BME280;53766;50.280;19.160;2023-09-07T09:51:30;99434.97;;;20.82;52.97
66857;BME280;53766;50.280;19.160;2023-09-07T09:53:58;99421.59;;;20.82;52.88
66857;BME280;53766;50.280;19.160;2023-09-07T09:56:27;99432.94;;;20.84;52.92
66857;BME280;53766;50.280;19.160;2023-09-07T09:58:54;99427.59;;;20.84;52.81
66857;BME280;53766;50.280;19.160;2023-09-07T10:01:22;99429.25;;;20.85;52.87
66857;BME280;53766;50.280;19.160;2023-09-07T10:03:50;99433.56;;;20.86;52.95
66857;BME280;53766;50.280;19.160;2023-09-07T10:06:19;99434.41;;;20.86;52.87
66857;BME280;53766;50.280;19.160;2023-09-07T10:08:58;99433.38;;;20.87;52.93
66857;BME280;53766;50.280;19.160;2023-09-07T10:11:33;99433.19;;;20.89;52.87
66857;BME280;53766;50.280;19.160;2023-09-07T10:14:01;99431.34;;;20.89;52.94
66857;BME280;53766;50.280;19.160;2023-09-07T10:16:43;99431.16;;;20.91;53.03
66857;BME280;53766;50.280;19.160;2023-09-07T10:21:42;99433.25;;;20.95;52.93
66857;BME280;53766;50.280;19.160;2023-09-07T10:24:09;99422.53;;;20.95;52.89
66857;BME280;53766;50.280;19.160;2023-09-07T10:26:37;99421.72;;;20.95;52.94
66857;BME280;53766;50.280;19.160;2023-09-07T10:29:04;99421.50;;;20.96;52.92
66857;BME280;53766;50.280;19.160;2023-09-07T10:31:32;99422.13;;;20.99;52.90
66857;BME280;53766;50.280;19.160;2023-09-07T10:34:19;99421.94;;;21.00;52.90
66857;BME280;53766;50.280;19.160;2023-09-07T10:36:48;99417.41;;;21.01;52.95
66857;BME280;53766;50.280;19.160;2023-09-07T10:39:22;99419.88;;;21.02;52.93
66857;BME280;53766;50.280;19.160;2023-09-07T10:41:50;99417.84;;;21.04;52.86
66857;BME280;53766;50.280;19.160;2023-09-07T10:44:24;99424.84;;;21.05;52.85
66857;BME280;53766;50.280;19.160;2023-09-07T10:46:52;99414.97;;;21.06;52.77
66857;BME280;53766;50.280;19.160;2023-09-07T10:49:19;99412.06;;;21.07;52.88
66857;BME280;53766;50.280;19.160;2023-09-07T10:51:46;99412.94;;;21.08;52.95
66857;BME280;53766;50.280;19.160;2023-09-07T10:54:14;99417.25;;;21.09;52.88
66857;BME280;53766;50.280;19.160;2023-09-07T10:56:45;99410.84;;;21.10;52.87
66857;BME280;53766;50.280;19.160;2023-09-07T10:59:13;99408.81;;;21.12;52.84
66857;BME280;53766;50.280;19.160;2023-09-07T11:01:41;99407.97;;;21.11;52.90
66857;BME280;53766;50.280;19.160;2023-09-07T11:04:08;99398.09;;;21.12;52.72
66857;BME280;53766;50.280;19.160;2023-09-07T11:06:39;99402.25;;;21.14;52.74
66857;BME280;53766;50.280;19.160;2023-09-07T11:09:08;99408.41;;;21.15;52.74
66857;BME280;53766;50.280;19.160;2023-09-07T11:11:37;99404.69;;;21.16;52.81
66857;BME280;53766;50.280;19.160;2023-09-07T11:14:04;99406.38;;;21.17;52.59
66857;BME280;53766;50.280;19.160;2023-09-07T11:16:33;99417.09;;;21.17;52.75
66857;BME280;53766;50.280;19.160;2023-09-07T11:19:04;99405.34;;;21.18;52.66
66857;BME280;53766;50.280;19.160;2023-09-07T11:21:32;99411.31;;;21.20;52.75
66857;BME280;53766;50.280;19.160;2023-09-07T11:24:01;99414.00;;;21.20;52.62
66857;BME280;53766;50.280;19.160;2023-09-07T11:26:43;99411.13;;;21.22;52.65
66857;BME280;53766;50.280;19.160;2023-09-07T11:29:15;99408.25;;;21.23;52.67
66857;BME280;53766;50.280;19.160;2023-09-07T11:31:43;99407.22;;;21.24;52.72
66857;BME280;53766;50.280;19.160;2023-09-07T11:34:15;99410.72;;;21.25;52.69
66857;BME280;53766;50.280;19.160;2023-09-07T11:36:42;99405.19;;;21.26;52.67
66857;BME280;53766;50.280;19.160;2023-09-07T11:39:10;99405.19;;;21.26;52.66
66857;BME280;53766;50.280;19.160;2023-09-07T11:41:42;99401.44;;;21.27;52.61
66857;BME280;53766;50.280;19.160;2023-09-07T11:44:10;99396.94;;;21.28;52.60
66857;BME280;53766;50.280;19.160;2023-09-07T11:46:38;99397.75;;;21.28;52.68
66857;BME280;53766;50.280;19.160;2023-09-07T11:49:06;99401.06;;;21.30;52.76
66857;BME280;53766;50.280;19.160;2023-09-07T11:51:33;99394.91;;;21.30;52.67
66857;BME280;53766;50.280;19.160;2023-09-07T11:54:03;99396.53;;;21.31;52.67
66857;BME280;53766;50.280;19.160;2023-09-07T11:56:32;99392.84;;;21.32;52.62
66857;BME280;53766;50.280;19.160;2023-09-07T11:58:59;99392.00;;;21.31;52.63
66857;BME280;53766;50.280;19.160;2023-09-07T12:01:27;99389.13;;;21.33;52.65
66857;BME280;53766;50.280;19.160;2023-09-07T12:03:54;99388.31;;;21.32;52.69
66857;BME280;53766;50.280;19.160;2023-09-07T12:06:22;99396.97;;;21.34;52.70
66857;BME280;53766;50.280;19.160;2023-09-07T12:11:27;99392.44;;;21.35;52.69
66857;BME280;53766;50.280;19.160;2023-09-07T12:13:54;99387.88;;;21.35;52.66
66857;BME280;53766;50.280;19.160;2023-09-07T12:16:22;99398.41;;;21.37;52.67
66857;BME280;53766;50.280;19.160;2023-09-07T12:18:49;99393.88;;;21.37;52.65
66857;BME280;53766;50.280;19.160;2023-09-07T12:21:17;99385.03;;;21.37;52.53
66857;BME280;53766;50.280;19.160;2023-09-07T12:23:44;99383.16;;;21.37;52.53
66857;BME280;53766;50.280;19.160;2023-09-07T12:26:12;99375.94;;;21.38;52.60
66857;BME280;53766;50.280;19.160;2023-09-07T12:28:41;99372.25;;;21.39;52.52
66857;BME280;53766;50.280;19.160;2023-09-07T12:31:09;99366.88;;;21.39;52.56
66857;BME280;53766;50.280;19.160;2023-09-07T12:33:36;99374.75;;;21.41;52.44
66857;BME280;53766;50.280;19.160;2023-09-07T12:36:04;99372.06;;;21.41;52.42
66857;BME280;53766;50.280;19.160;2023-09-07T12:38:36;99363.81;;;21.42;52.47
66857;BME280;53766;50.280;19.160;2023-09-07T12:41:03;99368.38;;;21.42;52.50
66857;BME280;53766;50.280;19.160;2023-09-07T12:43:30;99365.69;;;21.42;52.45
66857;BME280;53766;50.280;19.160;2023-09-07T12:45:58;99366.31;;;21.44;52.50
66857;BME280;53766;50.280;19.160;2023-09-07T12:48:26;99365.28;;;21.45;52.36
66857;BME280;53766;50.280;19.160;2023-09-07T12:50:54;99366.13;;;21.45;52.41
66857;BME280;53766;50.280;19.160;2023-09-07T12:53:21;99356.22;;;21.46;52.32
66857;BME280;53766;50.280;19.160;2023-09-07T12:55:53;99366.94;;;21.46;52.36
66857;BME280;53766;50.280;19.160;2023-09-07T12:58:20;99368.59;;;21.47;52.42
66857;BME280;53766;50.280;19.160;2023-09-07T13:00:48;99361.16;;;21.49;52.40
66857;BME280;53766;50.280;19.160;2023-09-07T13:03:15;99365.72;;;21.48;52.27